sensor_id;sensor_type;location;lat;lon;timestamp;pressure;altitude;pressure_sealevel;temperature;humidity
53546;BME280;39432;51.902;10.844;2023-10-31T00:02:24;97934.09;;;12.37;100.00
53546;BME280;39432;51.902;10.844;2023-10-31T00:05:31;97936.41;;;12.22;100.00
53546;BME280;39432;51.902;10.844;2023-10-31T00:08:29;97946.78;;;12.11;100.00
53546;BME280;39432;51.902;10.844;2023-10-31T00:11:49;97951.38;;;12.38;100.00
53546;BME280;39432;51.902;10.844;2023-10-31T00:14:20;97960.28;;;12.44;100.00
53546;BME280;39432;51.902;10.844;2023-10-31T00:16:57;97964.44;;;12.41;100.00
53546;BME280;39432;51.902;10.844;2023-10-31T00:19:28;97960.75;;;12.23;100.00
53546;BME280;39432;51.902;10.844;2023-10-31T00:25:16;97966.22;;;12.82;100.00
53546;BME280;39432;51.902;10.844;2023-10-31T00:28:21;97948.56;;;12.74;100.00
53546;BME280;39432;51.902;10.844;2023-10-31T00:31:08;97938.59;;;12.33;100.00
53546;BME280;39432;51.902;10.844;2023-10-31T00:33:55;97952.81;;;12.80;100.00
53546;BME280;39432;51.902;10.844;2023-10-31T00:36:38;97930.44;;;12.42;100.00
53546;BME280;39432;51.902;10.844;2023-10-31T00:39:09;97952.69;;;12.63;100.00
53546;BME280;39432;51.902;10.844;2023-10-31T00:41:40;97944.75;;;12.61;100.00
53546;BME280;39432;51.902;10.844;2023-10-31T00:44:33;97934.78;;;12.65;100.00
53546;BME280;39432;51.902;10.844;2023-10-31T00:47:09;97935.63;;;12.97;100.00
53546;BME280;39432;51.902;10.844;2023-10-31T00:49:52;97918.38;;;12.52;100.00
53546;BME280;39432;51.902;10.844;2023-10-31T00:55:21;97916.22;;;12.40;100.00
53546;BME280;39432;51.902;10.844;2023-10-31T00:57:52;97923.13;;;12.60;100.00
53546;BME280;39432;51.902;10.844;2023-10-31T01:00:42;97936.66;;;12.79;100.00
53546;BME280;39432;51.902;10.844;2023-10-31T01:11:02;97866.09;;;13.67;100.00
53546;BME280;39432;51.902;10.844;2023-10-31T01:14:09;97856.75;;;14.20;100.00
53546;BME280;39432;51.902;10.844;2023-10-31T01:17:20;97813.06;;;14.10;100.00
53546;BME280;39432;51.902;10.844;2023-10-31T01:19:53;97792.72;;;14.03;100.00
53546;BME280;39432;51.902;10.844;2023-10-31T01:22:23;97779.09;;;14.06;100.00
53546;BME280;39432;51.902;10.844;2023-10-31T01:24:54;97777.31;;;14.19;100.00
53546;BME280;39432;51.902;10.844;2023-10-31T01:27:24;97766.00;;;14.12;100.00
53546;BME280;39432;51.902;10.844;2023-10-31T01:29:54;97757.16;;;14.62;100.00
53546;BME280;39432;51.902;10.844;2023-10-31T01:32:27;97739.25;;;14.85;100.00
53546;BME280;39432;51.902;10.844;2023-10-31T01:34:58;97715.22;;;14.09;100.00
53546;BME280;39432;51.902;10.844;2023-10-31T01:37:28;97723.31;;;14.06;100.00
53546;BME280;39432;51.902;10.844;2023-10-31T01:40:03;97725.63;;;13.34;100.00
53546;BME280;39432;51.902;10.844;2023-10-31T01:42:42;97768.13;;;13.37;100.00
53546;BME280;39432;51.902;10.844;2023-10-31T01:45:18;97772.75;;;13.19;100.00
53546;BME280;39432;51.902;10.844;2023-10-31T01:48:29;97787.06;;;14.08;100.00
53546;BME280;39432;51.902;10.844;2023-10-31T01:57:36;97783.84;;;12.97;100.00
53546;BME280;39432;51.902;10.844;2023-10-31T02:01:04;97814.53;;;13.73;100.00
53546;BME280;39432;51.902;10.844;2023-10-31T02:04:18;97790.28;;;14.10;100.00
53546;BME280;39432;51.902;10.844;2023-10-31T02:07:29;97776.41;;;13.63;100.00
53546;BME280;39432;51.902;10.844;2023-10-31T02:11:41;97757.59;;;14.00;100.00
53546;BME280;39432;51.902;10.844;2023-10-31T02:14:41;97741.66;;;14.48;100.00
53546;BME280;39432;51.902;10.844;2023-10-31T02:17:29;97698.97;;;14.72;100.00
53546;BME280;39432;51.902;10.844;2023-10-31T02:20:55;97670.41;;;14.56;100.00
53546;BME280;39432;51.902;10.844;2023-10-31T02:24:05;97659.03;;;13.72;100.00
53546;BME280;39432;51.902;10.844;2023-10-31T02:26:54;97672.81;;;13.46;100.00
53546;BME280;39432;51.902;10.844;2023-10-31T02:32:50;97712.88;;;13.21;100.00
53546;BME280;39432;51.902;10.844;2023-10-31T02:35:27;97730.91;;;14.09;100.00
53546;BME280;39432;51.902;10.844;2023-10-31T02:38:42;97717.22;;;13.39;100.00
53546;BME280;39432;51.902;10.844;2023-10-31T02:41:52;97730.94;;;13.83;100.00
53546;BME280;39432;51.902;10.844;2023-10-31T02:45:13;97715.91;;;13.97;100.00
53546;BME280;39432;51.902;10.844;2023-10-31T02:48:11;97688.97;;;14.67;100.00
53546;BME280;39432;51.902;10.844;2023-10-31T02:50:41;97667.25;;;14.28;100.00
53546;BME280;39432;51.902;10.844;2023-10-31T02:53:12;97653.63;;;14.99;100.00
53546;BME280;39432;51.902;10.844;2023-10-31T02:55:42;97644.31;;;13.77;100.00
53546;BME280;39432;51.902;10.844;2023-10-31T02:58:15;97657.28;;;13.59;100.00
53546;BME280;39432;51.902;10.844;2023-10-31T03:00:57;97673.03;;;14.52;100.00
53546;BME280;39432;51.902;10.844;2023-10-31T03:04:19;97634.63;;;13.79;100.00
53546;BME280;39432;51.902;10.844;2023-10-31T03:07:15;97648.88;;;13.64;100.00
53546;BME280;39432;51.902;10.844;2023-10-31T03:10:16;97652.38;;;13.90;100.00
53546;BME280;39432;51.902;10.844;2023-10-31T03:13:03;97643.16;;;13.78;100.00
53546;BME280;39432;51.902;10.844;2023-10-31T03:15:51;97663.78;;;14.10;100.00
53546;BME280;39432;51.902;10.844;2023-10-31T03:19:04;97661.25;;;13.87;100.00
53546;BME280;39432;51.902;10.844;2023-10-31T03:22:13;97650.81;;;13.03;100.00
53546;BME280;39432;51.902;10.844;2023-10-31T03:28:20;97693.66;;;13.38;100.00
53546;BME280;39432;51.902;10.844;2023-10-31T03:31:43;97717.50;;;13.98;100.00
53546;BME280;39432;51.902;10.844;2023-10-31T03:38:47;97662.97;;;14.01;100.00
53546;BME280;39432;51.902;10.844;2023-10-31T03:41:42;97643.78;;;13.92;100.00
53546;BME280;39432;51.902;10.844;2023-10-31T03:44:40;97627.88;;;13.42;100.00
53546;BME280;39432;51.902;10.844;2023-10-31T03:51:36;97620.53;;;13.72;100.00
53546;BME280;39432;51.902;10.844;2023-10-31T03:54:25;97613.38;;;13.88;100.00
53546;BME280;39432;51.902;10.844;2023-10-31T04:04:13;97616.00;;;13.76;100.00
53546;BME280;39432;51.902;10.844;2023-10-31T04:07:06;97612.97;;;13.60;100.00
53546;BME280;39432;51.902;10.844;2023-10-31T04:09:38;97617.38;;;13.53;100.00
53546;BME280;39432;51.902;10.844;2023-10-31T04:12:08;97632.25;;;13.52;100.00
53546;BME280;39432;51.902;10.844;2023-10-31T04:14:40;97632.06;;;13.48;100.00
53546;BME280;39432;51.902;10.844;2023-10-31T04:17:30;97639.34;;;13.53;100.00
53546;BME280;39432;51.902;10.844;2023-10-31T04:20:03;97635.00;;;13.52;100.00
53546;BME280;39432;51.902;10.844;2023-10-31T04:22:34;97650.00;;;13.45;100.00
53546;BME280;39432;51.902;10.844;2023-10-31T04:25:05;97648.72;;;13.34;100.00
53546;BME280;39432;51.902;10.844;2023-10-31T04:27:35;97648.09;;;13.37;100.00
53546;BME280;39432;51.902;10.844;2023-10-31T04:30:07;97647.41;;;13.14;100.00
53546;BME280;39432;51.902;10.844;2023-10-31T04:32:41;97638.09;;;13.24;100.00
53546;BME280;39432;51.902;10.844;2023-10-31T04:35:14;97635.13;;;13.21;100.00
53546;BME280;39432;51.902;10.844;2023-10-31T04:37:44;97636.09;;;12.90;100.00
53546;BME280;39432;51.902;10.844;2023-10-31T04:40:14;97656.91;;;12.82;100.00
53546;BME280;39432;51.902;10.844;2023-10-31T04:42:46;97665.75;;;12.62;100.00
53546;BME280;39432;51.902;10.844;2023-10-31T04:45:16;97680.59;;;12.61;100.00
53546;BME280;39432;51.902;10.844;2023-10-31T04:47:47;97698.19;;;12.60;100.00
53546;BME280;39432;51.902;10.844;2023-10-31T04:50:20;97687.16;;;12.43;100.00
53546;BME280;39432;51.902;10.844;2023-10-31T04:52:50;97685.69;;;12.36;100.00
53546;BME280;39432;51.902;10.844;2023-10-31T04:55:20;97689.84;;;12.25;100.00
53546;BME280;39432;51.902;10.844;2023-10-31T04:57:51;97689.66;;;12.22;100.00
53546;BME280;39432;51.902;10.844;2023-10-31T05:00:21;97687.50;;;12.10;100.00
53546;BME280;39432;51.902;10.844;2023-10-31T05:02:51;97679.28;;;12.10;100.00
53546;BME280;39432;51.902;10.844;2023-10-31T05:05:26;97685.78;;;12.23;100.00
53546;BME280;39432;51.902;10.844;2023-10-31T05:07:56;97679.00;;;12.20;100.00
53546;BME280;39432;51.902;10.844;2023-10-31T05:10:26;97658.47;;;12.09;100.00
53546;BME280;39432;51.902;10.844;2023-10-31T05:12:56;97653.25;;;11.99;100.00
53546;BME280;39432;51.902;10.844;2023-10-31T05:15:26;97638.44;;;12.00;100.00
53546;BME280;39432;51.902;10.844;2023-10-31T05:17:58;97637.94;;;11.98;100.00
53546;BME280;39432;51.902;10.844;2023-10-31T05:20:31;97636.44;;;11.92;100.00
53546;BME280;39432;51.902;10.844;2023-10-31T05:23:01;97633.28;;;11.98;100.00
53546;BME280;39432;51.902;10.844;2023-10-31T05:25:31;97631.34;;;11.99;100.00
53546;BME280;39432;51.902;10.844;2023-10-31T05:28:02;97636.38;;;12.05;100.00
53546;BME280;39432;51.902;10.844;2023-10-31T05:30:32;97612.19;;;11.76;100.00
53546;BME280;39432;51.902;10.844;2023-10-31T05:33:03;97608.22;;;11.82;100.00
53546;BME280;39432;51.902;10.844;2023-10-31T05:35:36;97599.03;;;11.56;100.00
53546;BME280;39432;51.902;10.844;2023-10-31T05:38:06;97589.81;;;11.52;100.00
53546;BME280;39432;51.902;10.844;2023-10-31T05:40:36;97600.22;;;11.41;100.00
53546;BME280;39432;51.902;10.844;2023-10-31T05:43:07;97587.22;;;11.24;100.00
53546;BME280;39432;51.902;10.844;2023-10-31T05:49:32;97583.88;;;11.05;100.00
53546;BME280;39432;51.902;10.844;2023-10-31T05:52:46;97589.41;;;11.14;100.00
53546;BME280;39432;51.902;10.844;2023-10-31T05:55:46;97598.75;;;11.13;100.00
53546;BME280;39432;51.902;10.844;2023-10-31T05:59:24;97588.34;;;11.01;100.00
53546;BME280;39432;51.902;10.844;2023-10-31T06:02:28;97594.44;;;10.98;100.00
53546;BME280;39432;51.902;10.844;2023-10-31T06:07:12;97591.09;;;11.01;100.00
53546;BME280;39432;51.902;10.844;2023-10-31T06:13:17;97610.34;;;10.96;100.00
53546;BME280;39432;51.902;10.844;2023-10-31T06:16:13;97611.47;;;10.95;100.00
53546;BME280;39432;51.902;10.844;2023-10-31T06:19:23;97606.72;;;10.87;100.00
53546;BME280;39432;51.902;10.844;2023-10-31T06:22:34;97615.84;;;10.82;100.00
53546;BME280;39432;51.902;10.844;2023-10-31T06:25:22;97606.56;;;10.83;100.00
53546;BME280;39432;51.902;10.844;2023-10-31T06:29:08;97612.84;;;10.84;100.00
53546;BME280;39432;51.902;10.844;2023-10-31T06:32:20;97623.38;;;10.76;100.00
53546;BME280;39432;51.902;10.844;2023-10-31T06:35:39;97637.56;;;10.78;100.00
53546;BME280;39432;51.902;10.844;2023-10-31T06:38:40;97649.22;;;10.70;100.00
53546;BME280;39432;51.902;10.844;2023-10-31T06:41:38;97647.50;;;10.74;100.00
53546;BME280;39432;51.902;10.844;2023-10-31T06:44:38;97671.72;;;10.67;100.00
53546;BME280;39432;51.902;10.844;2023-10-31T06:51:14;97686.59;;;10.89;100.00
53546;BME280;39432;51.902;10.844;2023-10-31T06:54:23;97697.09;;;10.95;100.00
53546;BME280;39432;51.902;10.844;2023-10-31T06:57:28;97703.00;;;10.89;100.00
53546;BME280;39432;51.902;10.844;2023-10-31T07:00:52;97690.00;;;10.94;100.00
53546;BME280;39432;51.902;10.844;2023-10-31T07:03:44;97696.91;;;10.92;100.00
53546;BME280;39432;51.902;10.844;2023-10-31T07:06:36;97699.09;;;11.03;100.00
53546;BME280;39432;51.902;10.844;2023-10-31T07:09:34;97692.00;;;11.02;100.00
53546;BME280;39432;51.902;10.844;2023-10-31T07:12:36;97690.19;;;10.98;100.00
53546;BME280;39432;51.902;10.844;2023-10-31T07:15:50;97697.47;;;11.16;100.00
53546;BME280;39432;51.902;10.844;2023-10-31T07:18:38;97699.69;;;11.14;100.00
53546;BME280;39432;51.902;10.844;2023-10-31T07:21:41;97702.94;;;11.16;100.00
53546;BME280;39432;51.902;10.844;2023-10-31T07:24:40;97710.50;;;11.19;100.00
53546;BME280;39432;51.902;10.844;2023-10-31T07:28:09;97711.16;;;11.16;100.00
53546;BME280;39432;51.902;10.844;2023-10-31T07:31:19;97706.75;;;11.15;100.00
53546;BME280;39432;51.902;10.844;2023-10-31T07:34:16;97715.13;;;11.10;100.00
53546;BME280;39432;51.902;10.844;2023-10-31T07:36:57;97719.66;;;11.15;100.00
53546;BME280;39432;51.902;10.844;2023-10-31T07:40:56;97728.81;;;11.10;100.00
53546;BME280;39432;51.902;10.844;2023-10-31T07:43:34;97735.47;;;11.04;100.00
53546;BME280;39432;51.902;10.844;2023-10-31T07:46:30;97733.84;;;11.17;100.00
53546;BME280;39432;51.902;10.844;2023-10-31T07:49:39;97732.63;;;11.23;100.00
53546;BME280;39432;51.902;10.844;2023-10-31T08:01:22;97731.50;;;11.46;100.00
53546;BME280;39432;51.902;10.844;2023-10-31T08:04:36;97736.06;;;11.51;100.00
53546;BME280;39432;51.902;10.844;2023-10-31T08:07:57;97736.31;;;11.41;100.00
53546;BME280;39432;51.902;10.844;2023-10-31T08:10:46;97739.41;;;11.48;100.00
53546;BME280;39432;51.902;10.844;2023-10-31T08:13:56;97727.84;;;11.51;100.00
53546;BME280;39432;51.902;10.844;2023-10-31T08:16:54;97735.50;;;11.63;100.00
53546;BME280;39432;51.902;10.844;2023-10-31T08:19:33;97739.69;;;11.60;100.00
53546;BME280;39432;51.902;10.844;2023-10-31T08:22:37;97749.56;;;11.70;100.00
53546;BME280;39432;51.902;10.844;2023-10-31T08:25:22;97753.00;;;11.53;100.00
53546;BME280;39432;51.902;10.844;2023-10-31T08:29:08;97770.66;;;11.47;100.00
53546;BME280;39432;51.902;10.844;2023-10-31T08:32:01;97774.53;;;11.68;100.00
53546;BME280;39432;51.902;10.844;2023-10-31T08:35:10;97777.81;;;11.70;100.00
53546;BME280;39432;51.902;10.844;2023-10-31T08:38:16;97775.34;;;11.82;100.00
53546;BME280;39432;51.902;10.844;2023-10-31T08:41:23;97782.53;;;11.78;100.00
53546;BME280;39432;51.902;10.844;2023-10-31T08:44:24;97790.44;;;11.80;100.00
53546;BME280;39432;51.902;10.844;2023-10-31T08:51:06;97808.22;;;11.82;100.00
53546;BME280;39432;51.902;10.844;2023-10-31T08:54:14;97811.66;;;11.88;100.00
53546;BME280;39432;51.902;10.844;2023-10-31T08:56:53;97817.47;;;12.09;100.00
53546;BME280;39432;51.902;10.844;2023-10-31T08:59:50;97816.63;;;12.08;100.00
53546;BME280;39432;51.902;10.844;2023-10-31T09:05:59;97828.53;;;12.04;100.00
53546;BME280;39432;51.902;10.844;2023-10-31T09:09:28;97824.03;;;11.85;100.00
53546;BME280;39432;51.902;10.844;2023-10-31T09:12:18;97841.69;;;11.79;100.00
53546;BME280;39432;51.902;10.844;2023-10-31T09:15:44;97847.81;;;11.63;100.00
53546;BME280;39432;51.902;10.844;2023-10-31T09:18:55;97865.25;;;11.67;100.00
53546;BME280;39432;51.902;10.844;2023-10-31T09:21:38;97862.22;;;11.68;100.00
53546;BME280;39432;51.902;10.844;2023-10-31T09:24:51;97881.31;;;11.46;100.00
53546;BME280;39432;51.902;10.844;2023-10-31T09:28:14;97888.41;;;11.47;100.00
53546;BME280;39432;51.902;10.844;2023-10-31T09:31:14;97887.28;;;11.61;100.00
53546;BME280;39432;51.902;10.844;2023-10-31T09:34:01;97904.22;;;11.64;100.00
53546;BME280;39432;51.902;10.844;2023-10-31T09:37:05;97914.53;;;11.80;100.00
53546;BME280;39432;51.902;10.844;2023-10-31T09:40:55;97922.56;;;11.91;100.00
53546;BME280;39432;51.902;10.844;2023-10-31T09:49:50;97909.66;;;12.05;100.00
53546;BME280;39432;51.902;10.844;2023-10-31T09:53:02;97883.47;;;11.99;100.00
53546;BME280;39432;51.902;10.844;2023-10-31T09:56:16;97862.22;;;11.82;100.00
53546;BME280;39432;51.902;10.844;2023-10-31T09:59:06;97870.03;;;12.11;100.00
53546;BME280;39432;51.902;10.844;2023-10-31T10:02:16;97885.06;;;12.58;100.00
53546;BME280;39432;51.902;10.844;2023-10-31T10:05:02;97875.97;;;12.80;100.00
53546;BME280;39432;51.902;10.844;2023-10-31T10:08:27;97876.28;;;12.25;100.00
53546;BME280;39432;51.902;10.844;2023-10-31T10:11:20;97892.75;;;12.11;100.00
53546;BME280;39432;51.902;10.844;2023-10-31T10:14:48;97898.72;;;11.91;100.00
53546;BME280;39432;51.902;10.844;2023-10-31T10:22:09;97914.41;;;12.35;100.00
53546;BME280;39432;51.902;10.844;2023-10-31T10:25:04;97910.28;;;12.24;100.00
53546;BME280;39432;51.902;10.844;2023-10-31T10:27:53;97912.03;;;12.20;100.00
53546;BME280;39432;51.902;10.844;2023-10-31T10:30:47;97907.84;;;12.23;100.00
53546;BME280;39432;51.902;10.844;2023-10-31T10:34:20;97901.81;;;12.34;100.00
53546;BME280;39432;51.902;10.844;2023-10-31T10:37:22;97884.50;;;12.48;100.00
53546;BME280;39432;51.902;10.844;2023-10-31T10:40:32;97890.53;;;12.58;100.00
53546;BME280;39432;51.902;10.844;2023-10-31T10:44:17;97882.31;;;12.89;100.00
53546;BME280;39432;51.902;10.844;2023-10-31T10:47:24;97872.00;;;12.64;100.00
53546;BME280;39432;51.902;10.844;2023-10-31T10:50:20;97885.31;;;12.79;100.00
53546;BME280;39432;51.902;10.844;2023-10-31T10:53:49;97885.19;;;12.84;100.00
53546;BME280;39432;51.902;10.844;2023-10-31T10:57:15;97893.31;;;13.29;100.00
53546;BME280;39432;51.902;10.844;2023-10-31T11:00:20;97876.88;;;13.38;100.00
53546;BME280;39432;51.902;10.844;2023-10-31T11:03:38;97879.09;;;12.96;100.00
53546;BME280;39432;51.902;10.844;2023-10-31T11:07:10;97879.41;;;12.63;100.00
53546;BME280;39432;51.902;10.844;2023-10-31T11:14:43;97884.59;;;12.65;100.00
53546;BME280;39432;51.902;10.844;2023-10-31T11:18:17;97882.44;;;12.53;100.00
53546;BME280;39432;51.902;10.844;2023-10-31T11:21:14;97885.59;;;12.47;100.00
53546;BME280;39432;51.902;10.844;2023-10-31T11:24:37;97889.84;;;12.30;100.00
53546;BME280;39432;51.902;10.844;2023-10-31T11:28:22;97904.91;;;12.19;100.00
53546;BME280;39432;51.902;10.844;2023-10-31T11:31:25;97909.91;;;12.39;100.00
53546;BME280;39432;51.902;10.844;2023-10-31T11:34:55;97904.66;;;12.52;100.00
53546;BME280;39432;51.902;10.844;2023-10-31T11:38:05;97913.78;;;12.38;100.00
53546;BME280;39432;51.902;10.844;2023-10-31T11:41:15;97916.19;;;12.62;100.00
53546;BME280;39432;51.902;10.844;2023-10-31T11:44:07;97914.53;;;12.75;100.00
53546;BME280;39432;51.902;10.844;2023-10-31T11:47:17;97917.66;;;12.37;100.00
53546;BME280;39432;51.902;10.844;2023-10-31T11:50:24;97912.16;;;12.37;100.00
53546;BME280;39432;51.902;10.844;2023-10-31T11:54:02;97928.88;;;12.27;100.00
53546;BME280;39432;51.902;10.844;2023-10-31T11:57:08;97939.47;;;12.43;100.00
53546;BME280;39432;51.902;10.844;2023-10-31T12:00:00;97941.94;;;12.30;100.00
53546;BME280;39432;51.902;10.844;2023-10-31T12:03:21;97939.75;;;12.41;100.00
53546;BME280;39432;51.902;10.844;2023-10-31T12:10:09;97947.88;;;12.69;100.00
53546;BME280;39432;51.902;10.844;2023-10-31T12:13:19;97948.06;;;12.50;100.00
53546;BME280;39432;51.902;10.844;2023-10-31T12:17:02;97955.66;;;12.30;100.00
53546;BME280;39432;51.902;10.844;2023-10-31T12:20:54;97955.66;;;12.30;100.00
53546;BME280;39432;51.902;10.844;2023-10-31T12:24:27;97970.63;;;12.47;100.00
53546;BME280;39432;51.902;10.844;2023-10-31T12:28:01;97967.28;;;12.72;100.00
53546;BME280;39432;51.902;10.844;2023-10-31T12:35:21;97974.06;;;12.52;100.00
53546;BME280;39432;51.902;10.844;2023-10-31T12:38:42;97979.50;;;12.66;100.00
53546;BME280;39432;51.902;10.844;2023-10-31T12:42:03;97980.50;;;12.48;100.00
53546;BME280;39432;51.902;10.844;2023-10-31T12:45:14;97984.66;;;12.45;100.00
53546;BME280;39432;51.902;10.844;2023-10-31T12:48:37;97992.31;;;12.34;100.00
53546;BME280;39432;51.902;10.844;2023-10-31T12:52:04;97984.50;;;12.28;100.00
53546;BME280;39432;51.902;10.844;2023-10-31T12:55:41;97994.28;;;12.20;100.00
53546;BME280;39432;51.902;10.844;2023-10-31T12:59:13;97992.03;;;12.22;100.00
53546;BME280;39432;51.902;10.844;2023-10-31T13:02:39;98011.56;;;12.21;100.00
53546;BME280;39432;51.902;10.844;2023-10-31T13:08:55;98020.84;;;12.33;100.00
53546;BME280;39432;51.902;10.844;2023-10-31T13:11:47;98018.38;;;12.46;100.00
53546;BME280;39432;51.902;10.844;2023-10-31T13:14:59;98037.69;;;12.40;100.00
53546;BME280;39432;51.902;10.844;2023-10-31T13:18:17;98037.41;;;12.42;100.00
53546;BME280;39432;51.902;10.844;2023-10-31T13:21:39;98048.88;;;12.44;100.00
53546;BME280;39432;51.902;10.844;2023-10-31T13:25:13;98051.28;;;12.46;100.00
53546;BME280;39432;51.902;10.844;2023-10-31T13:28:22;98062.25;;;12.46;100.00
53546;BME280;39432;51.902;10.844;2023-10-31T13:31:48;98069.19;;;12.43;100.00
53546;BME280;39432;51.902;10.844;2023-10-31T13:35:36;98079.03;;;12.44;100.00
53546;BME280;39432;51.902;10.844;2023-10-31T13:39:12;98084.84;;;12.43;100.00
53546;BME280;39432;51.902;10.844;2023-10-31T13:42:18;98085.66;;;12.29;100.00
53546;BME280;39432;51.902;10.844;2023-10-31T13:45:30;98092.47;;;12.18;100.00
53546;BME280;39432;51.902;10.844;2023-10-31T14:32:17;98126.19;;;12.05;100.00
53546;BME280;39432;51.902;10.844;2023-10-31T14:39:09;98140.50;;;12.02;100.00
53546;BME280;39432;51.902;10.844;2023-10-31T14:46:04;98129.97;;;12.09;100.00
53546;BME280;39432;51.902;10.844;2023-10-31T14:48:56;98137.47;;;12.17;100.00
53546;BME280;39432;51.902;10.844;2023-10-31T14:52:57;98143.31;;;11.97;100.00
53546;BME280;39432;51.902;10.844;2023-10-31T14:56:13;98137.34;;;11.95;100.00
53546;BME280;39432;51.902;10.844;2023-10-31T14:59:46;98144.13;;;11.83;100.00
53546;BME280;39432;51.902;10.844;2023-10-31T15:03:15;98148.00;;;11.82;100.00
53546;BME280;39432;51.902;10.844;2023-10-31T15:06:44;98144.28;;;11.73;100.00
53546;BME280;39432;51.902;10.844;2023-10-31T15:09:50;98151.38;;;11.60;100.00
53546;BME280;39432;51.902;10.844;2023-10-31T15:13:00;98156.63;;;11.57;100.00
53546;BME280;39432;51.902;10.844;2023-10-31T15:16:22;98158.84;;;11.55;100.00
53546;BME280;39432;51.902;10.844;2023-10-31T15:19:28;98172.00;;;11.53;100.00
53546;BME280;39432;51.902;10.844;2023-10-31T15:22:51;98186.63;;;11.48;100.00
53546;BME280;39432;51.902;10.844;2023-10-31T15:28:49;98199.38;;;11.39;100.00
53546;BME280;39432;51.902;10.844;2023-10-31T15:32:10;98208.31;;;11.45;100.00
53546;BME280;39432;51.902;10.844;2023-10-31T15:35:19;98219.78;;;11.28;100.00
53546;BME280;39432;51.902;10.844;2023-10-31T15:42:02;98221.94;;;11.50;100.00
53546;BME280;39432;51.902;10.844;2023-10-31T15:52:08;98246.22;;;11.38;100.00
53546;BME280;39432;51.902;10.844;2023-10-31T16:03:10;98270.28;;;11.59;100.00
53546;BME280;39432;51.902;10.844;2023-10-31T16:17:20;98293.56;;;11.57;100.00
53546;BME280;39432;51.902;10.844;2023-10-31T16:35:41;98337.75;;;11.69;100.00
53546;BME280;39432;51.902;10.844;2023-10-31T16:39:30;98354.28;;;11.64;100.00
53546;BME280;39432;51.902;10.844;2023-10-31T16:42:57;98364.13;;;11.46;100.00
53546;BME280;39432;51.902;10.844;2023-10-31T16:48:44;98371.75;;;11.68;100.00
53546;BME280;39432;51.902;10.844;2023-10-31T16:55:22;98383.09;;;11.61;100.00
53546;BME280;39432;51.902;10.844;2023-10-31T16:58:07;98390.88;;;11.73;100.00
53546;BME280;39432;51.902;10.844;2023-10-31T17:01:16;98388.00;;;11.41;100.00
53546;BME280;39432;51.902;10.844;2023-10-31T17:15:47;98419.25;;;11.40;100.00
53546;BME280;39432;51.902;10.844;2023-10-31T17:39:57;98453.72;;;11.89;100.00
53546;BME280;39432;51.902;10.844;2023-10-31T17:44:08;98454.91;;;11.82;100.00
53546;BME280;39432;51.902;10.844;2023-10-31T17:47:34;98466.63;;;11.88;100.00
53546;BME280;39432;51.902;10.844;2023-10-31T18:33:18;98551.41;;;11.74;100.00
53546;BME280;39432;51.902;10.844;2023-10-31T18:38:48;98553.28;;;11.79;100.00
53546;BME280;39432;51.902;10.844;2023-10-31T19:17:01;98542.53;;;12.30;100.00
53546;BME280;39432;51.902;10.844;2023-10-31T19:55:04;98573.91;;;11.47;100.00
53546;BME280;39432;51.902;10.844;2023-10-31T21:51:14;98571.31;;;13.55;100.00
53546;BME280;39432;51.902;10.844;2023-10-31T21:54:11;98575.59;;;12.58;100.00
53546;BME280;39432;51.902;10.844;2023-10-31T21:57:39;98579.28;;;13.05;100.00
53546;BME280;39432;51.902;10.844;2023-10-31T22:10:59;98620.75;;;12.04;100.00
53546;BME280;39432;51.902;10.844;2023-10-31T22:45:02;98641.50;;;12.10;100.00
